sensor_id;sensor_type;location;lat;lon;timestamp;P1;durP1;ratioP1;P2;durP2;ratioP2
22176;SDS011;11254;50.098;8.726;2022-07-23T00:00:56;11.95;;;5.20;;
22176;SDS011;11254;50.098;8.726;2022-07-23T00:03:24;8.00;;;4.55;;
22176;SDS011;11254;50.098;8.726;2022-07-23T00:05:52;9.15;;;4.50;;
22176;SDS011;11254;50.098;8.726;2022-07-23T00:08:21;8.82;;;4.97;;
22176;SDS011;11254;50.098;8.726;2022-07-23T00:10:49;7.97;;;4.22;;
22176;SDS011;11254;50.098;8.726;2022-07-23T00:13:17;8.07;;;4.60;;
22176;SDS011;11254;50.098;8.726;2022-07-23T00:15:46;8.77;;;4.32;;
22176;SDS011;11254;50.098;8.726;2022-07-23T00:18:14;10.52;;;4.90;;
22176;SDS011;11254;50.098;8.726;2022-07-23T00:20:42;8.95;;;4.70;;
22176;SDS011;11254;50.098;8.726;2022-07-23T00:23:10;10.38;;;5.30;;
22176;SDS011;11254;50.098;8.726;2022-07-23T00:25:38;8.43;;;5.00;;
22176;SDS011;11254;50.098;8.726;2022-07-23T00:28:06;8.50;;;4.55;;
22176;SDS011;11254;50.098;8.726;2022-07-23T00:30:35;7.90;;;4.47;;
22176;SDS011;11254;50.098;8.726;2022-07-23T00:33:05;9.52;;;4.97;;
22176;SDS011;11254;50.098;8.726;2022-07-23T00:35:35;9.27;;;5.00;;
22176;SDS011;11254;50.098;8.726;2022-07-23T00:38:06;9.90;;;4.75;;
22176;SDS011;11254;50.098;8.726;2022-07-23T00:40:36;9.82;;;4.82;;
22176;SDS011;11254;50.098;8.726;2022-07-23T00:43:05;7.85;;;4.68;;
22176;SDS011;11254;50.098;8.726;2022-07-23T00:45:34;10.38;;;4.93;;
22176;SDS011;11254;50.098;8.726;2022-07-23T00:48:02;8.52;;;4.78;;
22176;SDS011;11254;50.098;8.726;2022-07-23T00:50:32;7.13;;;4.15;;
22176;SDS011;11254;50.098;8.726;2022-07-23T00:53:00;8.77;;;4.57;;
22176;SDS011;11254;50.098;8.726;2022-07-23T00:55:28;8.07;;;4.70;;
22176;SDS011;11254;50.098;8.726;2022-07-23T00:57:57;9.45;;;4.93;;
22176;SDS011;11254;50.098;8.726;2022-07-23T01:00:26;9.70;;;4.90;;
22176;SDS011;11254;50.098;8.726;2022-07-23T01:02:55;9.32;;;4.65;;
22176;SDS011;11254;50.098;8.726;2022-07-23T01:05:23;11.10;;;4.93;;
22176;SDS011;11254;50.098;8.726;2022-07-23T01:07:52;11.55;;;5.35;;
22176;SDS011;11254;50.098;8.726;2022-07-23T01:10:22;9.52;;;5.30;;
22176;SDS011;11254;50.098;8.726;2022-07-23T01:13:00;8.68;;;5.10;;
22176;SDS011;11254;50.098;8.726;2022-07-23T01:15:31;9.13;;;4.85;;
22176;SDS011;11254;50.098;8.726;2022-07-23T01:18:00;11.30;;;5.15;;
22176;SDS011;11254;50.098;8.726;2022-07-23T01:20:29;9.70;;;5.05;;
22176;SDS011;11254;50.098;8.726;2022-07-23T01:22:59;9.77;;;5.53;;
22176;SDS011;11254;50.098;8.726;2022-07-23T01:25:28;10.50;;;5.40;;
22176;SDS011;11254;50.098;8.726;2022-07-23T01:27:59;8.88;;;4.80;;
22176;SDS011;11254;50.098;8.726;2022-07-23T01:30:27;9.30;;;5.35;;
22176;SDS011;11254;50.098;8.726;2022-07-23T01:32:57;10.73;;;5.25;;
22176;SDS011;11254;50.098;8.726;2022-07-23T01:35:25;14.45;;;5.13;;
22176;SDS011;11254;50.098;8.726;2022-07-23T01:37:57;8.02;;;5.07;;
22176;SDS011;11254;50.098;8.726;2022-07-23T01:40:27;12.27;;;4.93;;
22176;SDS011;11254;50.098;8.726;2022-07-23T01:42:56;11.05;;;4.88;;
22176;SDS011;11254;50.098;8.726;2022-07-23T01:45:26;11.43;;;5.03;;
22176;SDS011;11254;50.098;8.726;2022-07-23T01:47:54;9.98;;;5.18;;
22176;SDS011;11254;50.098;8.726;2022-07-23T01:50:22;9.50;;;5.30;;
22176;SDS011;11254;50.098;8.726;2022-07-23T01:53:10;9.65;;;4.97;;
22176;SDS011;11254;50.098;8.726;2022-07-23T01:55:39;9.60;;;5.03;;
22176;SDS011;11254;50.098;8.726;2022-07-23T01:58:07;10.55;;;5.03;;
22176;SDS011;11254;50.098;8.726;2022-07-23T02:00:35;11.68;;;5.40;;
22176;SDS011;11254;50.098;8.726;2022-07-23T02:03:04;11.88;;;5.20;;
22176;SDS011;11254;50.098;8.726;2022-07-23T02:05:36;12.20;;;5.88;;
22176;SDS011;11254;50.098;8.726;2022-07-23T02:08:04;8.80;;;5.03;;
22176;SDS011;11254;50.098;8.726;2022-07-23T02:10:36;10.35;;;5.50;;
22176;SDS011;11254;50.098;8.726;2022-07-23T02:13:04;9.05;;;5.10;;
22176;SDS011;11254;50.098;8.726;2022-07-23T02:15:32;9.45;;;5.38;;
22176;SDS011;11254;50.098;8.726;2022-07-23T02:18:01;11.70;;;5.43;;
22176;SDS011;11254;50.098;8.726;2022-07-23T02:20:30;8.77;;;4.75;;
22176;SDS011;11254;50.098;8.726;2022-07-23T02:22:58;9.98;;;5.38;;
22176;SDS011;11254;50.098;8.726;2022-07-23T02:25:26;8.73;;;4.68;;
22176;SDS011;11254;50.098;8.726;2022-07-23T02:28:01;8.95;;;5.32;;
22176;SDS011;11254;50.098;8.726;2022-07-23T02:30:29;9.98;;;4.80;;
22176;SDS011;11254;50.098;8.726;2022-07-23T02:32:57;11.73;;;5.82;;
22176;SDS011;11254;50.098;8.726;2022-07-23T02:35:25;9.02;;;5.03;;
22176;SDS011;11254;50.098;8.726;2022-07-23T02:37:56;8.60;;;4.72;;
22176;SDS011;11254;50.098;8.726;2022-07-23T02:40:25;9.43;;;5.03;;
22176;SDS011;11254;50.098;8.726;2022-07-23T02:42:53;10.32;;;5.40;;
22176;SDS011;11254;50.098;8.726;2022-07-23T02:45:23;9.27;;;4.75;;
22176;SDS011;11254;50.098;8.726;2022-07-23T02:47:53;10.23;;;4.90;;
22176;SDS011;11254;50.098;8.726;2022-07-23T02:50:21;8.80;;;4.93;;
22176;SDS011;11254;50.098;8.726;2022-07-23T02:52:50;9.23;;;5.00;;
22176;SDS011;11254;50.098;8.726;2022-07-23T02:55:18;8.77;;;5.07;;
22176;SDS011;11254;50.098;8.726;2022-07-23T02:57:46;9.68;;;5.35;;
22176;SDS011;11254;50.098;8.726;2022-07-23T03:00:14;9.07;;;5.03;;
22176;SDS011;11254;50.098;8.726;2022-07-23T03:02:43;10.70;;;4.90;;
22176;SDS011;11254;50.098;8.726;2022-07-23T03:05:11;11.27;;;5.43;;
22176;SDS011;11254;50.098;8.726;2022-07-23T03:07:40;9.00;;;4.80;;
22176;SDS011;11254;50.098;8.726;2022-07-23T03:10:08;7.88;;;4.97;;
22176;SDS011;11254;50.098;8.726;2022-07-23T03:12:36;13.65;;;6.00;;
22176;SDS011;11254;50.098;8.726;2022-07-23T03:15:05;11.23;;;5.55;;
22176;SDS011;11254;50.098;8.726;2022-07-23T03:17:34;8.57;;;4.72;;
22176;SDS011;11254;50.098;8.726;2022-07-23T03:20:04;8.65;;;5.00;;
22176;SDS011;11254;50.098;8.726;2022-07-23T03:22:33;10.63;;;5.50;;
22176;SDS011;11254;50.098;8.726;2022-07-23T03:25:02;8.90;;;5.15;;
22176;SDS011;11254;50.098;8.726;2022-07-23T03:27:34;8.65;;;4.95;;
22176;SDS011;11254;50.098;8.726;2022-07-23T03:30:02;11.95;;;5.53;;
22176;SDS011;11254;50.098;8.726;2022-07-23T03:32:32;11.10;;;5.55;;
22176;SDS011;11254;50.098;8.726;2022-07-23T03:35:00;12.15;;;5.40;;
22176;SDS011;11254;50.098;8.726;2022-07-23T03:37:30;8.50;;;4.60;;
22176;SDS011;11254;50.098;8.726;2022-07-23T03:39:59;10.57;;;5.38;;
22176;SDS011;11254;50.098;8.726;2022-07-23T03:42:28;13.05;;;5.57;;
22176;SDS011;11254;50.098;8.726;2022-07-23T03:44:56;10.50;;;5.53;;
22176;SDS011;11254;50.098;8.726;2022-07-23T03:47:24;8.13;;;4.82;;
22176;SDS011;11254;50.098;8.726;2022-07-23T03:49:52;10.48;;;5.45;;
22176;SDS011;11254;50.098;8.726;2022-07-23T03:52:20;11.10;;;5.88;;
22176;SDS011;11254;50.098;8.726;2022-07-23T03:54:52;9.65;;;5.68;;
22176;SDS011;11254;50.098;8.726;2022-07-23T03:57:22;9.30;;;4.63;;
22176;SDS011;11254;50.098;8.726;2022-07-23T03:59:50;9.90;;;5.63;;
22176;SDS011;11254;50.098;8.726;2022-07-23T04:02:18;10.38;;;5.47;;
22176;SDS011;11254;50.098;8.726;2022-07-23T04:04:46;10.25;;;5.57;;
22176;SDS011;11254;50.098;8.726;2022-07-23T04:07:15;10.80;;;5.60;;
22176;SDS011;11254;50.098;8.726;2022-07-23T04:09:44;12.85;;;6.25;;
22176;SDS011;11254;50.098;8.726;2022-07-23T04:12:13;10.35;;;5.53;;
22176;SDS011;11254;50.098;8.726;2022-07-23T04:14:41;9.70;;;5.55;;
22176;SDS011;11254;50.098;8.726;2022-07-23T04:17:10;10.50;;;5.45;;
22176;SDS011;11254;50.098;8.726;2022-07-23T04:19:38;9.93;;;5.90;;
22176;SDS011;11254;50.098;8.726;2022-07-23T04:22:08;13.23;;;6.05;;
22176;SDS011;11254;50.098;8.726;2022-07-23T04:24:36;10.82;;;5.95;;
22176;SDS011;11254;50.098;8.726;2022-07-23T04:27:05;10.70;;;5.80;;
22176;SDS011;11254;50.098;8.726;2022-07-23T04:29:34;11.32;;;6.07;;
22176;SDS011;11254;50.098;8.726;2022-07-23T04:32:03;11.50;;;6.22;;
22176;SDS011;11254;50.098;8.726;2022-07-23T04:34:31;9.90;;;5.75;;
22176;SDS011;11254;50.098;8.726;2022-07-23T04:37:00;10.90;;;6.15;;
22176;SDS011;11254;50.098;8.726;2022-07-23T04:39:30;11.23;;;6.13;;
22176;SDS011;11254;50.098;8.726;2022-07-23T04:41:58;10.38;;;6.07;;
22176;SDS011;11254;50.098;8.726;2022-07-23T04:44:27;10.32;;;6.32;;
22176;SDS011;11254;50.098;8.726;2022-07-23T04:46:57;12.07;;;6.22;;
22176;SDS011;11254;50.098;8.726;2022-07-23T04:49:25;11.77;;;6.15;;
22176;SDS011;11254;50.098;8.726;2022-07-23T04:51:54;11.95;;;6.35;;
22176;SDS011;11254;50.098;8.726;2022-07-23T04:54:22;12.25;;;6.20;;
22176;SDS011;11254;50.098;8.726;2022-07-23T04:56:50;9.57;;;5.18;;
22176;SDS011;11254;50.098;8.726;2022-07-23T04:59:18;13.15;;;6.25;;
22176;SDS011;11254;50.098;8.726;2022-07-23T05:01:50;10.80;;;5.97;;
22176;SDS011;11254;50.098;8.726;2022-07-23T05:04:20;11.27;;;6.00;;
22176;SDS011;11254;50.098;8.726;2022-07-23T05:06:48;11.13;;;6.13;;
22176;SDS011;11254;50.098;8.726;2022-07-23T05:09:16;10.80;;;5.80;;
22176;SDS011;11254;50.098;8.726;2022-07-23T05:11:45;13.85;;;6.80;;
22176;SDS011;11254;50.098;8.726;2022-07-23T05:14:13;12.65;;;5.78;;
22176;SDS011;11254;50.098;8.726;2022-07-23T05:16:41;10.98;;;6.60;;
22176;SDS011;11254;50.098;8.726;2022-07-23T05:19:16;11.52;;;6.60;;
22176;SDS011;11254;50.098;8.726;2022-07-23T05:21:52;12.00;;;6.40;;
22176;SDS011;11254;50.098;8.726;2022-07-23T05:24:20;10.70;;;6.43;;
22176;SDS011;11254;50.098;8.726;2022-07-23T05:26:49;12.68;;;6.60;;
22176;SDS011;11254;50.098;8.726;2022-07-23T05:29:18;13.15;;;6.05;;
22176;SDS011;11254;50.098;8.726;2022-07-23T05:31:46;12.65;;;6.28;;
22176;SDS011;11254;50.098;8.726;2022-07-23T05:34:14;12.65;;;5.85;;
22176;SDS011;11254;50.098;8.726;2022-07-23T05:36:44;14.52;;;5.93;;
22176;SDS011;11254;50.098;8.726;2022-07-23T05:39:13;11.50;;;6.47;;
22176;SDS011;11254;50.098;8.726;2022-07-23T05:41:42;13.90;;;6.72;;
22176;SDS011;11254;50.098;8.726;2022-07-23T05:44:10;14.75;;;6.20;;
22176;SDS011;11254;50.098;8.726;2022-07-23T05:46:41;12.32;;;6.72;;
22176;SDS011;11254;50.098;8.726;2022-07-23T05:49:14;12.07;;;6.45;;
22176;SDS011;11254;50.098;8.726;2022-07-23T05:52:03;11.02;;;6.05;;
22176;SDS011;11254;50.098;8.726;2022-07-23T05:55:02;12.88;;;6.78;;
22176;SDS011;11254;50.098;8.726;2022-07-23T05:57:30;13.38;;;6.50;;
22176;SDS011;11254;50.098;8.726;2022-07-23T05:59:58;13.38;;;6.95;;
22176;SDS011;11254;50.098;8.726;2022-07-23T06:02:27;13.07;;;7.55;;
22176;SDS011;11254;50.098;8.726;2022-07-23T06:04:55;12.40;;;6.50;;
22176;SDS011;11254;50.098;8.726;2022-07-23T06:07:29;12.32;;;6.75;;
22176;SDS011;11254;50.098;8.726;2022-07-23T06:09:57;13.85;;;6.50;;
22176;SDS011;11254;50.098;8.726;2022-07-23T06:12:27;10.20;;;5.88;;
22176;SDS011;11254;50.098;8.726;2022-07-23T06:14:55;13.35;;;6.57;;
22176;SDS011;11254;50.098;8.726;2022-07-23T06:17:24;10.45;;;5.88;;
22176;SDS011;11254;50.098;8.726;2022-07-23T06:19:53;13.02;;;6.15;;
22176;SDS011;11254;50.098;8.726;2022-07-23T06:22:22;11.25;;;5.57;;
22176;SDS011;11254;50.098;8.726;2022-07-23T06:24:50;9.57;;;5.35;;
22176;SDS011;11254;50.098;8.726;2022-07-23T06:27:20;14.50;;;6.10;;
22176;SDS011;11254;50.098;8.726;2022-07-23T06:29:53;11.35;;;5.20;;
22176;SDS011;11254;50.098;8.726;2022-07-23T06:32:21;9.40;;;5.60;;
22176;SDS011;11254;50.098;8.726;2022-07-23T06:34:49;14.38;;;6.55;;
22176;SDS011;11254;50.098;8.726;2022-07-23T06:37:21;9.82;;;5.60;;
22176;SDS011;11254;50.098;8.726;2022-07-23T06:39:50;10.57;;;5.20;;
22176;SDS011;11254;50.098;8.726;2022-07-23T06:42:18;10.75;;;5.40;;
22176;SDS011;11254;50.098;8.726;2022-07-23T06:44:56;10.65;;;5.75;;
22176;SDS011;11254;50.098;8.726;2022-07-23T06:47:24;12.15;;;5.30;;
22176;SDS011;11254;50.098;8.726;2022-07-23T06:49:52;11.07;;;5.60;;
22176;SDS011;11254;50.098;8.726;2022-07-23T06:52:23;10.77;;;4.93;;
22176;SDS011;11254;50.098;8.726;2022-07-23T06:54:52;9.90;;;5.32;;
22176;SDS011;11254;50.098;8.726;2022-07-23T06:57:20;10.70;;;5.20;;
22176;SDS011;11254;50.098;8.726;2022-07-23T06:59:49;10.82;;;4.80;;
22176;SDS011;11254;50.098;8.726;2022-07-23T07:02:23;7.63;;;4.38;;
22176;SDS011;11254;50.098;8.726;2022-07-23T07:04:53;7.75;;;4.47;;
22176;SDS011;11254;50.098;8.726;2022-07-23T07:07:30;8.75;;;4.57;;
22176;SDS011;11254;50.098;8.726;2022-07-23T07:09:58;10.55;;;4.82;;
22176;SDS011;11254;50.098;8.726;2022-07-23T07:12:26;8.98;;;4.38;;
22176;SDS011;11254;50.098;8.726;2022-07-23T07:14:55;8.82;;;4.43;;
22176;SDS011;11254;50.098;8.726;2022-07-23T07:17:25;9.05;;;4.20;;
22176;SDS011;11254;50.098;8.726;2022-07-23T07:19:53;7.97;;;4.18;;
22176;SDS011;11254;50.098;8.726;2022-07-23T07:22:21;5.93;;;4.00;;
22176;SDS011;11254;50.098;8.726;2022-07-23T07:24:49;7.10;;;4.00;;
22176;SDS011;11254;50.098;8.726;2022-07-23T07:27:18;8.18;;;4.07;;
22176;SDS011;11254;50.098;8.726;2022-07-23T07:29:46;6.97;;;3.97;;
22176;SDS011;11254;50.098;8.726;2022-07-23T07:32:14;7.72;;;3.88;;
22176;SDS011;11254;50.098;8.726;2022-07-23T07:35:04;6.35;;;3.97;;
22176;SDS011;11254;50.098;8.726;2022-07-23T07:37:32;6.30;;;4.15;;
22176;SDS011;11254;50.098;8.726;2022-07-23T07:40:01;7.68;;;4.60;;
22176;SDS011;11254;50.098;8.726;2022-07-23T07:42:30;7.45;;;4.53;;
22176;SDS011;11254;50.098;8.726;2022-07-23T07:44:58;5.72;;;3.60;;
22176;SDS011;11254;50.098;8.726;2022-07-23T07:47:27;6.18;;;3.95;;
22176;SDS011;11254;50.098;8.726;2022-07-23T07:49:55;5.97;;;3.60;;
22176;SDS011;11254;50.098;8.726;2022-07-23T07:52:24;6.63;;;4.25;;
22176;SDS011;11254;50.098;8.726;2022-07-23T07:54:53;6.30;;;3.90;;
22176;SDS011;11254;50.098;8.726;2022-07-23T07:57:21;7.05;;;3.88;;
22176;SDS011;11254;50.098;8.726;2022-07-23T07:59:49;7.53;;;4.00;;
22176;SDS011;11254;50.098;8.726;2022-07-23T08:02:22;6.38;;;3.72;;
22176;SDS011;11254;50.098;8.726;2022-07-23T08:04:50;7.18;;;4.35;;
22176;SDS011;11254;50.098;8.726;2022-07-23T08:07:18;5.82;;;3.88;;
22176;SDS011;11254;50.098;8.726;2022-07-23T08:09:48;6.63;;;3.65;;
22176;SDS011;11254;50.098;8.726;2022-07-23T08:12:16;6.78;;;3.85;;
22176;SDS011;11254;50.098;8.726;2022-07-23T08:14:44;5.97;;;3.35;;
22176;SDS011;11254;50.098;8.726;2022-07-23T08:17:12;7.50;;;4.40;;
22176;SDS011;11254;50.098;8.726;2022-07-23T08:19:41;6.43;;;3.97;;
22176;SDS011;11254;50.098;8.726;2022-07-23T08:22:09;8.30;;;3.70;;
22176;SDS011;11254;50.098;8.726;2022-07-23T08:24:37;8.95;;;4.00;;
22176;SDS011;11254;50.098;8.726;2022-07-23T08:27:07;5.55;;;3.67;;
22176;SDS011;11254;50.098;8.726;2022-07-23T08:29:35;5.82;;;3.67;;
22176;SDS011;11254;50.098;8.726;2022-07-23T08:32:04;10.40;;;4.43;;
22176;SDS011;11254;50.098;8.726;2022-07-23T08:34:52;8.35;;;4.38;;
22176;SDS011;11254;50.098;8.726;2022-07-23T08:37:21;7.65;;;4.47;;
22176;SDS011;11254;50.098;8.726;2022-07-23T08:39:49;6.80;;;4.35;;
22176;SDS011;11254;50.098;8.726;2022-07-23T08:42:18;6.82;;;4.38;;
22176;SDS011;11254;50.098;8.726;2022-07-23T08:44:51;6.30;;;4.40;;
22176;SDS011;11254;50.098;8.726;2022-07-23T08:47:19;5.80;;;3.97;;
22176;SDS011;11254;50.098;8.726;2022-07-23T08:49:47;10.80;;;4.20;;
22176;SDS011;11254;50.098;8.726;2022-07-23T08:52:15;7.35;;;3.80;;
22176;SDS011;11254;50.098;8.726;2022-07-23T08:54:43;6.90;;;3.97;;
22176;SDS011;11254;50.098;8.726;2022-07-23T08:57:11;7.00;;;4.20;;
22176;SDS011;11254;50.098;8.726;2022-07-23T08:59:41;6.20;;;4.07;;
22176;SDS011;11254;50.098;8.726;2022-07-23T09:02:09;7.22;;;4.53;;
22176;SDS011;11254;50.098;8.726;2022-07-23T09:04:38;9.13;;;4.50;;
22176;SDS011;11254;50.098;8.726;2022-07-23T09:07:06;7.13;;;3.92;;
22176;SDS011;11254;50.098;8.726;2022-07-23T09:09:34;7.30;;;4.07;;
22176;SDS011;11254;50.098;8.726;2022-07-23T09:12:03;7.70;;;4.15;;
22176;SDS011;11254;50.098;8.726;2022-07-23T09:14:35;5.65;;;3.65;;
22176;SDS011;11254;50.098;8.726;2022-07-23T09:17:09;7.07;;;3.95;;
22176;SDS011;11254;50.098;8.726;2022-07-23T09:19:39;6.18;;;3.50;;
22176;SDS011;11254;50.098;8.726;2022-07-23T09:22:20;7.82;;;4.40;;
22176;SDS011;11254;50.098;8.726;2022-07-23T09:25:04;6.97;;;4.10;;
22176;SDS011;11254;50.098;8.726;2022-07-23T09:27:46;6.88;;;4.43;;
22176;SDS011;11254;50.098;8.726;2022-07-23T09:30:20;9.45;;;4.60;;
22176;SDS011;11254;50.098;8.726;2022-07-23T09:35:44;6.47;;;4.00;;
22176;SDS011;11254;50.098;8.726;2022-07-23T09:38:14;6.38;;;4.10;;
22176;SDS011;11254;50.098;8.726;2022-07-23T09:40:43;7.32;;;3.80;;
22176;SDS011;11254;50.098;8.726;2022-07-23T09:43:11;7.03;;;4.50;;
22176;SDS011;11254;50.098;8.726;2022-07-23T09:45:39;6.07;;;3.90;;
22176;SDS011;11254;50.098;8.726;2022-07-23T09:48:13;5.93;;;4.15;;
22176;SDS011;11254;50.098;8.726;2022-07-23T09:50:44;6.68;;;4.35;;
22176;SDS011;11254;50.098;8.726;2022-07-23T09:53:16;7.18;;;4.45;;
22176;SDS011;11254;50.098;8.726;2022-07-23T09:55:51;5.90;;;3.88;;
22176;SDS011;11254;50.098;8.726;2022-07-23T09:58:21;7.57;;;4.03;;
22176;SDS011;11254;50.098;8.726;2022-07-23T10:00:52;6.05;;;4.13;;
22176;SDS011;11254;50.098;8.726;2022-07-23T10:03:22;5.70;;;3.83;;
22176;SDS011;11254;50.098;8.726;2022-07-23T10:06:20;6.38;;;4.03;;
22176;SDS011;11254;50.098;8.726;2022-07-23T10:09:08;6.13;;;4.05;;
22176;SDS011;11254;50.098;8.726;2022-07-23T10:11:58;7.10;;;4.22;;
22176;SDS011;11254;50.098;8.726;2022-07-23T10:14:53;6.00;;;4.03;;
22176;SDS011;11254;50.098;8.726;2022-07-23T10:17:21;6.50;;;4.28;;
22176;SDS011;11254;50.098;8.726;2022-07-23T10:19:50;6.88;;;4.18;;
22176;SDS011;11254;50.098;8.726;2022-07-23T10:22:19;9.35;;;4.18;;
22176;SDS011;11254;50.098;8.726;2022-07-23T10:24:50;6.93;;;4.20;;
22176;SDS011;11254;50.098;8.726;2022-07-23T10:30:16;6.13;;;4.03;;
22176;SDS011;11254;50.098;8.726;2022-07-23T10:32:52;7.97;;;4.25;;
22176;SDS011;11254;50.098;8.726;2022-07-23T10:35:29;6.80;;;4.50;;
22176;SDS011;11254;50.098;8.726;2022-07-23T10:38:07;7.35;;;4.45;;
22176;SDS011;11254;50.098;8.726;2022-07-23T10:40:52;5.95;;;4.35;;
22176;SDS011;11254;50.098;8.726;2022-07-23T10:43:22;8.45;;;4.40;;
22176;SDS011;11254;50.098;8.726;2022-07-23T10:45:50;7.15;;;4.72;;
22176;SDS011;11254;50.098;8.726;2022-07-23T10:48:19;7.05;;;4.90;;
22176;SDS011;11254;50.098;8.726;2022-07-23T10:51:09;9.07;;;4.93;;
22176;SDS011;11254;50.098;8.726;2022-07-23T10:53:55;6.38;;;4.38;;
22176;SDS011;11254;50.098;8.726;2022-07-23T11:02:55;8.45;;;4.68;;
22176;SDS011;11254;50.098;8.726;2022-07-23T11:05:25;8.45;;;4.65;;
22176;SDS011;11254;50.098;8.726;2022-07-23T11:10:54;6.75;;;4.63;;
22176;SDS011;11254;50.098;8.726;2022-07-23T11:13:41;10.00;;;5.00;;
22176;SDS011;11254;50.098;8.726;2022-07-23T11:16:23;7.97;;;4.38;;
22176;SDS011;11254;50.098;8.726;2022-07-23T11:18:56;7.28;;;4.35;;
22176;SDS011;11254;50.098;8.726;2022-07-23T11:21:51;7.30;;;4.60;;
22176;SDS011;11254;50.098;8.726;2022-07-23T11:24:22;7.00;;;4.43;;
22176;SDS011;11254;50.098;8.726;2022-07-23T11:27:01;6.78;;;4.38;;
22176;SDS011;11254;50.098;8.726;2022-07-23T11:29:43;6.60;;;4.13;;
22176;SDS011;11254;50.098;8.726;2022-07-23T11:32:22;8.15;;;4.47;;
22176;SDS011;11254;50.098;8.726;2022-07-23T11:35:19;8.23;;;4.28;;
22176;SDS011;11254;50.098;8.726;2022-07-23T11:37:49;8.43;;;4.72;;
22176;SDS011;11254;50.098;8.726;2022-07-23T11:40:25;7.50;;;4.47;;
22176;SDS011;11254;50.098;8.726;2022-07-23T11:42:55;6.85;;;4.40;;
22176;SDS011;11254;50.098;8.726;2022-07-23T11:45:30;6.63;;;4.18;;
22176;SDS011;11254;50.098;8.726;2022-07-23T11:48:00;7.47;;;4.70;;
22176;SDS011;11254;50.098;8.726;2022-07-23T11:50:28;7.82;;;4.32;;
22176;SDS011;11254;50.098;8.726;2022-07-23T11:52:57;8.98;;;4.40;;
22176;SDS011;11254;50.098;8.726;2022-07-23T11:55:27;7.45;;;4.75;;
22176;SDS011;11254;50.098;8.726;2022-07-23T11:57:55;7.32;;;4.65;;
22176;SDS011;11254;50.098;8.726;2022-07-23T12:00:26;7.78;;;3.60;;
22176;SDS011;11254;50.098;8.726;2022-07-23T12:02:55;8.45;;;4.70;;
22176;SDS011;11254;50.098;8.726;2022-07-23T12:05:27;7.03;;;4.20;;
22176;SDS011;11254;50.098;8.726;2022-07-23T12:07:57;7.07;;;4.45;;
22176;SDS011;11254;50.098;8.726;2022-07-23T12:10:28;8.88;;;4.60;;
22176;SDS011;11254;50.098;8.726;2022-07-23T12:12:57;6.40;;;4.40;;
22176;SDS011;11254;50.098;8.726;2022-07-23T12:15:27;8.45;;;4.85;;
22176;SDS011;11254;50.098;8.726;2022-07-23T12:17:58;7.35;;;4.57;;
22176;SDS011;11254;50.098;8.726;2022-07-23T12:20:28;8.73;;;4.53;;
22176;SDS011;11254;50.098;8.726;2022-07-23T12:22:58;7.25;;;4.68;;
22176;SDS011;11254;50.098;8.726;2022-07-23T12:25:29;7.88;;;4.70;;
22176;SDS011;11254;50.098;8.726;2022-07-23T12:28:00;7.20;;;4.53;;
22176;SDS011;11254;50.098;8.726;2022-07-23T12:30:31;9.07;;;4.88;;
22176;SDS011;11254;50.098;8.726;2022-07-23T12:33:04;7.80;;;4.90;;
22176;SDS011;11254;50.098;8.726;2022-07-23T12:35:35;7.90;;;5.00;;
22176;SDS011;11254;50.098;8.726;2022-07-23T12:38:06;8.38;;;4.90;;
22176;SDS011;11254;50.098;8.726;2022-07-23T12:40:37;7.15;;;4.97;;
22176;SDS011;11254;50.098;8.726;2022-07-23T12:43:10;8.93;;;4.82;;
22176;SDS011;11254;50.098;8.726;2022-07-23T12:45:43;8.40;;;5.00;;
22176;SDS011;11254;50.098;8.726;2022-07-23T12:48:23;7.55;;;4.85;;
22176;SDS011;11254;50.098;8.726;2022-07-23T12:50:53;8.48;;;5.25;;
22176;SDS011;11254;50.098;8.726;2022-07-23T12:53:24;7.97;;;5.18;;
22176;SDS011;11254;50.098;8.726;2022-07-23T12:56:00;9.32;;;4.90;;
22176;SDS011;11254;50.098;8.726;2022-07-23T12:58:42;8.45;;;5.43;;
22176;SDS011;11254;50.098;8.726;2022-07-23T13:01:23;8.55;;;5.10;;
22176;SDS011;11254;50.098;8.726;2022-07-23T13:03:57;7.65;;;5.00;;
22176;SDS011;11254;50.098;8.726;2022-07-23T13:06:28;8.15;;;5.03;;
22176;SDS011;11254;50.098;8.726;2022-07-23T13:08:58;8.57;;;5.50;;
22176;SDS011;11254;50.098;8.726;2022-07-23T13:11:29;7.88;;;5.35;;
22176;SDS011;11254;50.098;8.726;2022-07-23T13:13:57;8.45;;;4.82;;
22176;SDS011;11254;50.098;8.726;2022-07-23T13:16:26;7.43;;;5.15;;
22176;SDS011;11254;50.098;8.726;2022-07-23T13:18:55;7.65;;;4.90;;
22176;SDS011;11254;50.098;8.726;2022-07-23T13:21:25;7.72;;;5.00;;
22176;SDS011;11254;50.098;8.726;2022-07-23T13:23:54;7.25;;;4.43;;
22176;SDS011;11254;50.098;8.726;2022-07-23T13:26:22;7.78;;;4.88;;
22176;SDS011;11254;50.098;8.726;2022-07-23T13:28:52;6.65;;;4.47;;
22176;SDS011;11254;50.098;8.726;2022-07-23T13:31:21;6.80;;;4.47;;
22176;SDS011;11254;50.098;8.726;2022-07-23T13:33:50;10.13;;;5.00;;
22176;SDS011;11254;50.098;8.726;2022-07-23T13:36:18;7.35;;;4.78;;
22176;SDS011;11254;50.098;8.726;2022-07-23T13:38:47;7.68;;;4.80;;
22176;SDS011;11254;50.098;8.726;2022-07-23T13:41:16;7.05;;;4.95;;
22176;SDS011;11254;50.098;8.726;2022-07-23T13:43:44;7.28;;;4.97;;
22176;SDS011;11254;50.098;8.726;2022-07-23T13:46:14;6.95;;;4.85;;
22176;SDS011;11254;50.098;8.726;2022-07-23T13:48:42;7.35;;;5.03;;
22176;SDS011;11254;50.098;8.726;2022-07-23T13:51:10;8.05;;;5.03;;
22176;SDS011;11254;50.098;8.726;2022-07-23T13:53:39;7.00;;;5.07;;
22176;SDS011;11254;50.098;8.726;2022-07-23T13:56:07;6.75;;;4.75;;
22176;SDS011;11254;50.098;8.726;2022-07-23T13:58:35;8.27;;;4.88;;
22176;SDS011;11254;50.098;8.726;2022-07-23T14:01:04;8.05;;;5.10;;
22176;SDS011;11254;50.098;8.726;2022-07-23T14:03:34;10.27;;;5.32;;
22176;SDS011;11254;50.098;8.726;2022-07-23T14:06:02;6.72;;;4.95;;
22176;SDS011;11254;50.098;8.726;2022-07-23T14:08:41;7.20;;;5.22;;
22176;SDS011;11254;50.098;8.726;2022-07-23T14:11:10;7.85;;;4.57;;
22176;SDS011;11254;50.098;8.726;2022-07-23T14:13:39;11.55;;;5.20;;
22176;SDS011;11254;50.098;8.726;2022-07-23T14:16:07;8.10;;;4.90;;
22176;SDS011;11254;50.098;8.726;2022-07-23T14:18:37;9.43;;;5.47;;
22176;SDS011;11254;50.098;8.726;2022-07-23T14:21:05;10.45;;;5.03;;
22176;SDS011;11254;50.098;8.726;2022-07-23T14:23:33;8.75;;;5.32;;
22176;SDS011;11254;50.098;8.726;2022-07-23T14:26:02;7.93;;;4.95;;
22176;SDS011;11254;50.098;8.726;2022-07-23T14:28:32;8.50;;;4.88;;
22176;SDS011;11254;50.098;8.726;2022-07-23T14:31:01;8.95;;;5.38;;
22176;SDS011;11254;50.098;8.726;2022-07-23T14:33:30;8.27;;;5.53;;
22176;SDS011;11254;50.098;8.726;2022-07-23T14:35:59;7.90;;;5.10;;
22176;SDS011;11254;50.098;8.726;2022-07-23T14:38:27;9.40;;;5.72;;
22176;SDS011;11254;50.098;8.726;2022-07-23T14:40:56;8.35;;;5.55;;
22176;SDS011;11254;50.098;8.726;2022-07-23T14:43:25;7.88;;;5.05;;
22176;SDS011;11254;50.098;8.726;2022-07-23T14:45:54;9.30;;;5.28;;
22176;SDS011;11254;50.098;8.726;2022-07-23T14:48:22;6.68;;;5.18;;
22176;SDS011;11254;50.098;8.726;2022-07-23T14:50:50;9.52;;;4.93;;
22176;SDS011;11254;50.098;8.726;2022-07-23T14:53:20;7.88;;;5.05;;
22176;SDS011;11254;50.098;8.726;2022-07-23T14:55:51;10.10;;;5.75;;
22176;SDS011;11254;50.098;8.726;2022-07-23T14:58:21;9.27;;;5.35;;
22176;SDS011;11254;50.098;8.726;2022-07-23T15:00:49;9.20;;;5.57;;
22176;SDS011;11254;50.098;8.726;2022-07-23T15:03:17;8.35;;;5.30;;
22176;SDS011;11254;50.098;8.726;2022-07-23T15:05:45;7.60;;;5.10;;
22176;SDS011;11254;50.098;8.726;2022-07-23T15:08:13;10.95;;;5.70;;
22176;SDS011;11254;50.098;8.726;2022-07-23T15:10:49;9.80;;;5.68;;
22176;SDS011;11254;50.098;8.726;2022-07-23T15:13:18;8.93;;;5.28;;
22176;SDS011;11254;50.098;8.726;2022-07-23T15:15:46;10.23;;;5.57;;
22176;SDS011;11254;50.098;8.726;2022-07-23T15:18:21;7.22;;;4.93;;